Time;durP1;ratioP1;P1;durP2;ratioP2;P2;SDS_P1;SDS_P2;PMS_P1;PMS_P2;Temp;Humidity;BMP_temperature;BMP_pressure;BME280_temperature;BME280_humidity;BME280_pressure;Samples;Min_cycle;Max_cycle;Signal;HPM_P1;HPM_P2
2021/05/12 00:01:18;;;;;;;2.20;2.00;;;12.50;79.80;;;;;;4920896;29;20061;-81
2021/05/12 00:03:44;;;;;;;2.28;2.08;;;12.50;80.00;;;;;;4903807;29;20063;-78
2021/05/12 00:06:10;;;;;;;2.40;2.20;;;12.50;80.20;;;;;;4904073;29;20128;-80
2021/05/12 00:08:35;;;;;;;2.30;2.20;;;12.50;80.50;;;;;;4903886;29;20072;-78
2021/05/12 00:11:01;;;;;;;2.28;2.10;;;12.40;80.40;;;;;;4904131;29;20364;-76
2021/05/12 00:13:27;;;;;;;2.35;2.20;;;12.40;80.50;;;;;;4920757;29;20031;-77
2021/05/12 00:15:53;;;;;;;2.80;2.60;;;12.40;80.70;;;;;;4903775;29;20077;-77
2021/05/12 00:18:22;;;;;;;4.18;2.60;;;12.30;80.70;;;;;;4921103;29;20087;-77
2021/05/12 00:20:48;;;;;;;3.75;2.30;;;12.30;80.60;;;;;;4920589;29;20464;-76
2021/05/12 00:23:18;;;;;;;4.60;2.15;;;12.20;80.90;;;;;;4904280;29;20055;-76
2021/05/12 00:25:43;;;;;;;3.00;2.65;;;12.20;81.30;;;;;;4903486;29;20123;-77
2021/05/12 00:28:09;;;;;;;2.97;2.47;;;12.10;82.40;;;;;;4903599;29;20197;-78
2021/05/12 00:30:35;;;;;;;2.42;2.20;;;12.10;82.00;;;;;;4920483;29;20028;-76
2021/05/12 00:33:01;;;;;;;3.47;2.40;;;12.00;82.20;;;;;;4903465;29;20171;-81
2021/05/12 00:35:27;;;;;;;2.90;2.63;;;12.00;82.20;;;;;;4920866;29;20107;-84
2021/05/12 00:37:53;;;;;;;2.83;2.20;;;12.00;82.40;;;;;;4904080;29;20028;-78
2021/05/12 00:40:19;;;;;;;2.28;1.95;;;11.90;82.70;;;;;;4920115;29;20027;-76
2021/05/12 00:42:45;;;;;;;1.90;1.80;;;11.90;82.90;;;;;;4903293;29;20031;-80
2021/05/12 00:45:15;;;;;;;1.90;1.80;;;11.90;83.10;;;;;;4920231;29;20052;-77
2021/05/12 00:47:40;;;;;;;2.10;1.77;;;11.90;83.20;;;;;;4903184;29;20024;-73
2021/05/12 00:50:07;;;;;;;1.88;1.77;;;11.80;83.70;;;;;;4920709;29;20084;-75
2021/05/12 00:52:33;;;;;;;3.42;1.95;;;11.80;84.00;;;;;;4920021;29;20027;-75
2021/05/12 00:54:59;;;;;;;2.80;1.88;;;11.80;83.30;;;;;;4920475;29;20423;-75
2021/05/12 00:57:25;;;;;;;1.80;1.70;;;11.80;83.40;;;;;;4920263;29;20032;-74
2021/05/12 00:59:53;;;;;;;1.90;1.80;;;11.70;83.60;;;;;;4919726;29;20036;-75
2021/05/12 01:02:19;;;;;;;3.10;1.90;;;11.70;83.70;;;;;;4919662;29;20423;-86
2021/05/12 01:04:44;;;;;;;2.13;1.92;;;11.70;83.70;;;;;;4919254;29;20057;-77
2021/05/12 01:07:10;;;;;;;2.00;1.90;;;11.70;83.80;;;;;;4902701;29;20090;-84
2021/05/12 01:09:36;;;;;;;3.30;2.00;;;11.70;83.70;;;;;;4902784;29;20032;-75
2021/05/12 01:12:03;;;;;;;2.38;2.20;;;11.70;83.80;;;;;;4919512;29;20040;-77
2021/05/12 01:14:29;;;;;;;1.95;1.85;;;11.60;84.00;;;;;;4902320;29;20036;-83
2021/05/12 01:16:55;;;;;;;2.03;1.90;;;11.60;84.20;;;;;;4902138;29;20032;-77
2021/05/12 01:19:22;;;;;;;2.05;1.95;;;11.50;84.40;;;;;;4902550;29;20038;-78
2021/05/12 01:21:47;;;;;;;2.95;1.90;;;11.60;84.40;;;;;;4902164;29;20052;-75
2021/05/12 01:24:13;;;;;;;2.20;2.00;;;11.50;84.50;;;;;;4902434;29;20052;-78
2021/05/12 01:26:39;;;;;;;1.90;1.80;;;11.50;84.80;;;;;;4919322;29;20024;-76
2021/05/12 01:29:07;;;;;;;3.35;2.03;;;11.40;84.70;;;;;;4901682;29;20025;-75
2021/05/12 01:31:39;;;;;;;2.47;1.55;;;11.40;84.80;;;;;;4901455;29;20111;-76
2021/05/12 01:34:07;;;;;;;1.80;1.70;;;11.50;85.10;;;;;;4918933;29;20028;-77
2021/05/12 01:36:34;;;;;;;3.03;1.70;;;11.40;84.90;;;;;;4919004;29;20043;-77
2021/05/12 01:39:00;;;;;;;2.28;1.73;;;11.40;84.80;;;;;;4919440;29;20051;-77
2021/05/12 01:41:27;;;;;;;1.73;1.33;;;11.40;84.90;;;;;;4901844;29;20036;-74
2021/05/12 01:43:54;;;;;;;1.45;1.35;;;11.40;84.80;;;;;;4918159;29;20454;-75
2021/05/12 01:46:20;;;;;;;1.70;1.60;;;11.40;84.90;;;;;;4901389;29;20031;-76
2021/05/12 01:48:46;;;;;;;1.65;1.55;;;11.40;84.80;;;;;;4918866;29;20028;-74
2021/05/12 01:51:13;;;;;;;1.50;1.40;;;11.40;84.80;;;;;;4901724;29;20538;-77
2021/05/12 01:53:41;;;;;;;1.50;1.40;;;11.40;84.90;;;;;;4918701;29;20036;-76
2021/05/12 01:56:08;;;;;;;1.70;1.52;;;11.40;84.90;;;;;;4918463;29;20048;-75
2021/05/12 01:58:34;;;;;;;1.77;1.50;;;11.40;85.20;;;;;;4918407;29;20158;-78
2021/05/12 02:01:01;;;;;;;2.15;1.50;;;11.30;85.10;;;;;;4901311;29;20036;-76
2021/05/12 02:03:27;;;;;;;1.65;1.55;;;11.40;85.30;;;;;;4918232;29;20027;-78
2021/05/12 02:05:53;;;;;;;2.13;1.83;;;11.30;85.30;;;;;;4919007;29;20024;-74
2021/05/12 02:08:21;;;;;;;1.60;1.50;;;11.30;85.40;;;;;;4918720;29;20024;-75
2021/05/12 02:10:49;;;;;;;1.52;1.42;;;11.20;85.40;;;;;;4919038;29;20451;-74
2021/05/12 02:13:16;;;;;;;1.70;1.60;;;11.30;85.40;;;;;;4902153;29;20032;-74
2021/05/12 02:15:42;;;;;;;1.77;1.67;;;11.20;85.50;;;;;;4900530;29;20047;-75
2021/05/12 02:18:08;;;;;;;1.70;1.40;;;11.30;85.70;;;;;;4902322;29;20115;-75
2021/05/12 02:20:35;;;;;;;1.45;1.35;;;11.20;85.90;;;;;;4918412;29;20160;-74
2021/05/12 02:23:03;;;;;;;1.15;1.05;;;11.20;86.70;;;;;;4901668;29;20039;-75
2021/05/12 02:25:29;;;;;;;0.90;0.90;;;11.10;87.00;;;;;;4916697;29;20118;-85
2021/05/12 02:27:55;;;;;;;1.00;1.00;;;11.10;87.10;;;;;;4918933;29;20056;-81
2021/05/12 02:30:22;;;;;;;1.30;1.00;;;11.10;87.20;;;;;;4917158;29;20024;-73
2021/05/12 02:32:48;;;;;;;0.98;0.98;;;11.00;87.40;;;;;;4917391;29;20024;-75
2021/05/12 02:35:15;;;;;;;1.75;1.10;;;11.10;87.70;;;;;;4917861;29;20028;-76
2021/05/12 02:37:41;;;;;;;1.13;1.02;;;11.10;87.70;;;;;;4917374;29;20032;-76
2021/05/12 02:40:10;;;;;;;1.05;1.00;;;11.10;87.80;;;;;;4918105;29;20024;-76
2021/05/12 02:42:36;;;;;;;1.02;1.02;;;11.20;87.90;;;;;;4901009;29;20034;-77
2021/05/12 02:45:06;;;;;;;1.13;1.00;;;11.20;87.60;;;;;;4917878;29;20146;-88
2021/05/12 02:47:31;;;;;;;0.85;0.60;;;11.30;87.50;;;;;;4911019;29;20099;-78
2021/05/12 02:49:57;;;;;;;0.73;0.73;;;11.30;87.20;;;;;;4917036;29;20039;-75
2021/05/12 02:52:23;;;;;;;0.85;0.75;;;11.30;87.20;;;;;;4917455;29;20043;-77
2021/05/12 02:54:49;;;;;;;0.65;0.65;;;11.30;87.20;;;;;;4918338;29;20116;-75
2021/05/12 02:57:15;;;;;;;1.10;1.00;;;11.30;86.90;;;;;;4917832;29;20459;-73
2021/05/12 02:59:41;;;;;;;1.40;1.30;;;11.30;87.10;;;;;;4900391;29;20080;-75
2021/05/12 03:02:06;;;;;;;0.85;0.85;;;11.30;87.20;;;;;;4901131;29;20115;-74
2021/05/12 03:04:32;;;;;;;1.30;1.20;;;11.30;86.90;;;;;;4916778;29;20490;-74
2021/05/12 03:06:58;;;;;;;2.17;1.30;;;11.30;86.80;;;;;;4916953;29;20036;-76
2021/05/12 03:09:25;;;;;;;0.70;0.70;;;11.30;86.80;;;;;;4917096;29;20040;-79
2021/05/12 03:11:50;;;;;;;3.03;1.30;;;11.30;86.90;;;;;;4917175;29;20032;-83
2021/05/12 03:14:18;;;;;;;3.25;1.38;;;11.30;87.10;;;;;;4900494;29;20083;-77
2021/05/12 03:16:43;;;;;;;1.27;1.17;;;11.20;87.00;;;;;;4900327;29;20052;-78
2021/05/12 03:19:10;;;;;;;0.80;0.70;;;11.20;87.10;;;;;;4917204;29;20111;-78
2021/05/12 03:21:36;;;;;;;1.20;1.10;;;11.30;87.40;;;;;;4899737;29;20466;-75
2021/05/12 03:24:03;;;;;;;1.30;1.10;;;11.30;87.20;;;;;;4917503;29;20035;-77
2021/05/12 03:26:29;;;;;;;0.90;0.90;;;11.20;87.20;;;;;;4917286;29;20036;-76
2021/05/12 03:28:55;;;;;;;1.75;1.00;;;11.20;87.30;;;;;;4916760;29;20028;-76
2021/05/12 03:31:21;;;;;;;1.33;1.23;;;11.30;87.40;;;;;;4917532;29;20031;-82
2021/05/12 03:33:47;;;;;;;1.13;1.02;;;11.20;87.60;;;;;;4917077;29;20111;-74
2021/05/12 03:36:13;;;;;;;2.15;1.00;;;11.20;87.90;;;;;;4916974;29;20115;-84
2021/05/12 03:38:39;;;;;;;1.08;1.05;;;11.20;88.00;;;;;;4917437;29;20060;-80
2021/05/12 03:41:05;;;;;;;0.93;0.93;;;11.20;88.10;;;;;;4916567;29;20031;-80
2021/05/12 03:43:33;;;;;;;1.67;1.00;;;11.20;88.40;;;;;;4900303;29;20521;-76
2021/05/12 03:45:59;;;;;;;1.02;0.93;;;11.20;88.40;;;;;;4916889;29;20022;-78
2021/05/12 03:48:25;;;;;;;0.70;0.70;;;11.30;88.30;;;;;;4916498;29;20028;-81
2021/05/12 03:50:50;;;;;;;0.93;0.93;;;11.40;88.10;;;;;;4900032;29;20020;-76
2021/05/12 03:53:16;;;;;;;0.90;0.90;;;11.50;87.90;;;;;;4917082;29;20024;-85
2021/05/12 03:55:42;;;;;;;2.63;1.00;;;11.50;87.80;;;;;;4917314;29;20083;-80
2021/05/12 03:58:08;;;;;;;1.25;1.15;;;11.60;87.80;;;;;;4917264;29;20083;-79
2021/05/12 04:00:34;;;;;;;2.17;1.08;;;11.60;87.60;;;;;;4916621;29;20039;-75
2021/05/12 04:03:00;;;;;;;1.23;1.00;;;11.60;87.40;;;;;;4900203;29;20028;-83
2021/05/12 04:05:25;;;;;;;1.92;1.00;;;11.60;87.40;;;;;;4899981;29;20395;-85
2021/05/12 04:07:51;;;;;;;1.00;1.00;;;11.50;87.30;;;;;;4915947;29;20036;-88
2021/05/12 04:10:18;;;;;;;2.63;1.42;;;11.50;87.50;;;;;;4915865;29;20033;-72
2021/05/12 04:12:44;;;;;;;1.30;1.17;;;11.50;87.60;;;;;;4916831;29;20028;-73
2021/05/12 04:15:10;;;;;;;0.98;0.93;;;11.50;87.70;;;;;;4917280;29;20055;-78
2021/05/12 04:17:37;;;;;;;4.07;2.40;;;11.50;87.90;;;;;;4916028;29;20366;-80
2021/05/12 04:20:12;;;;;;;4.43;2.67;;;11.60;88.70;;;;;;4916568;29;20032;-79
2021/05/12 04:22:39;;;;;;;3.30;2.20;;;11.70;87.90;;;;;;4916922;29;20478;-78
2021/05/12 04:25:07;;;;;;;3.17;1.95;;;11.70;88.00;;;;;;4910970;29;20427;-76
2021/05/12 04:27:33;;;;;;;1.48;1.38;;;11.80;87.90;;;;;;4909820;29;20111;-88
2021/05/12 04:29:59;;;;;;;1.17;1.10;;;11.80;87.70;;;;;;4917006;29;20478;-78
2021/05/12 04:32:24;;;;;;;3.10;1.50;;;11.80;87.60;;;;;;4915451;29;20106;-78
2021/05/12 04:34:50;;;;;;;1.38;1.27;;;11.90;87.60;;;;;;4915737;29;20115;-77
2021/05/12 04:37:16;;;;;;;1.52;1.35;;;11.90;87.60;;;;;;4917160;29;20470;-78
2021/05/12 04:39:43;;;;;;;1.52;1.42;;;11.90;87.70;;;;;;4919887;29;20038;-78
2021/05/12 04:42:09;;;;;;;1.70;1.50;;;11.90;88.30;;;;;;4920278;29;20020;-78
2021/05/12 04:44:34;;;;;;;1.38;1.23;;;11.90;87.80;;;;;;4920187;29;20020;-78
2021/05/12 04:47:00;;;;;;;1.42;1.33;;;11.90;88.10;;;;;;4918938;29;20036;-80
2021/05/12 04:49:26;;;;;;;1.83;1.65;;;12.00;88.00;;;;;;4918859;29;20043;-79
2021/05/12 04:51:52;;;;;;;4.68;1.33;;;12.10;88.10;;;;;;4920036;29;20060;-81
2021/05/12 04:54:18;;;;;;;1.50;1.40;;;12.30;87.50;;;;;;4918735;29;20070;-85
2021/05/12 04:56:43;;;;;;;2.88;1.63;;;12.30;87.70;;;;;;4918725;29;20051;-79
2021/05/12 04:59:09;;;;;;;1.60;1.50;;;12.40;87.30;;;;;;4919786;29;20024;-79
2021/05/12 05:01:35;;;;;;;2.30;1.30;;;12.40;87.30;;;;;;4919900;29;20075;-82
2021/05/12 05:04:01;;;;;;;1.73;1.63;;;12.50;87.20;;;;;;4912161;29;20128;-79
2021/05/12 05:06:29;;;;;;;1.40;1.30;;;12.60;87.10;;;;;;4901133;29;20040;-79
2021/05/12 05:08:55;;;;;;;3.80;1.30;;;12.60;86.90;;;;;;4868669;29;20095;-82
2021/05/12 05:11:22;;;;;;;1.50;1.40;;;12.60;87.10;;;;;;4884185;29;20467;-79
2021/05/12 05:13:47;;;;;;;1.77;1.67;;;12.80;86.80;;;;;;4883443;29;20061;-80
2021/05/12 05:16:13;;;;;;;2.63;1.80;;;12.80;86.50;;;;;;4900355;29;20171;-80
2021/05/12 05:18:40;;;;;;;1.52;1.40;;;12.80;86.40;;;;;;4883544;29;20032;-77
2021/05/12 05:21:07;;;;;;;1.50;1.40;;;12.80;86.60;;;;;;4883742;29;20029;-84
2021/05/12 05:23:34;;;;;;;2.95;1.40;;;13.00;86.10;;;;;;4883613;29;20031;-82
2021/05/12 05:26:02;;;;;;;1.50;1.30;;;13.10;85.60;;;;;;4883841;29;20028;-88
2021/05/12 05:28:28;;;;;;;1.27;1.20;;;13.10;85.10;;;;;;4884232;29;20454;-83
2021/05/12 05:30:53;;;;;;;1.48;1.38;;;13.10;85.20;;;;;;4883478;29;20115;-80
2021/05/12 05:33:19;;;;;;;1.70;1.02;;;13.20;85.10;;;;;;4883642;29;20028;-79
2021/05/12 05:35:46;;;;;;;0.70;0.70;;;13.30;85.00;;;;;;4900614;29;20029;-83
2021/05/12 05:38:12;;;;;;;4.15;0.90;;;13.40;84.40;;;;;;4900884;29;20032;-80
2021/05/12 05:40:39;;;;;;;2.63;0.77;;;13.50;83.70;;;;;;4883314;29;20031;-87
2021/05/12 05:43:07;;;;;;;1.10;0.60;;;13.50;83.20;;;;;;4883318;29;20025;-80
2021/05/12 05:45:34;;;;;;;3.33;0.60;;;13.50;82.90;;;;;;4900130;29;20092;-84
2021/05/12 05:48:02;;;;;;;1.60;0.45;;;13.60;82.10;;;;;;4883627;29;20115;-88
2021/05/12 05:50:27;;;;;;;0.88;0.70;;;13.60;82.30;;;;;;4882382;29;20526;-79
2021/05/12 05:52:57;;;;;;;0.50;0.50;;;13.70;81.50;;;;;;4882943;29;20155;-79
2021/05/12 05:55:22;;;;;;;0.65;0.65;;;13.60;81.60;;;;;;4867741;29;20063;-80
2021/05/12 05:57:49;;;;;;;0.30;0.30;;;13.60;82.30;;;;;;4883537;29;20029;-79
2021/05/12 06:00:15;;;;;;;0.40;0.40;;;13.80;82.40;;;;;;4883107;29;20057;-79
2021/05/12 06:02:41;;;;;;;0.60;0.60;;;13.80;82.70;;;;;;4899153;29;20087;-79
2021/05/12 06:05:10;;;;;;;0.85;0.52;;;13.90;82.50;;;;;;4897236;29;20147;-78
2021/05/12 06:07:38;;;;;;;2.30;0.52;;;14.00;82.30;;;;;;4901729;29;20046;-79
2021/05/12 06:10:05;;;;;;;0.30;0.30;;;14.20;82.10;;;;;;4901884;29;20024;-78
2021/05/12 06:12:30;;;;;;;0.47;0.47;;;14.40;81.70;;;;;;4886652;29;20036;-80
2021/05/12 06:14:56;;;;;;;1.55;0.52;;;14.50;79.50;;;;;;4918416;29;20509;-80
2021/05/12 06:17:22;;;;;;;0.90;0.30;;;14.50;79.60;;;;;;4918499;29;20036;-78
2021/05/12 06:19:47;;;;;;;0.65;0.40;;;14.50;80.00;;;;;;4918366;29;20103;-80
2021/05/12 06:22:15;;;;;;;0.20;0.20;;;14.60;80.00;;;;;;4918703;29;20451;-81
2021/05/12 06:24:41;;;;;;;0.60;0.30;;;14.70;78.90;;;;;;4901375;29;20048;-79
2021/05/12 06:27:10;;;;;;;0.90;0.60;;;14.70;79.00;;;;;;4901493;29;20084;-83
2021/05/12 06:29:37;;;;;;;0.47;0.40;;;14.80;77.20;;;;;;4901572;29;20545;-79
2021/05/12 06:32:08;;;;;;;0.28;0.20;;;14.80;77.00;;;;;;4901392;29;20032;-77
2021/05/12 06:34:34;;;;;;;0.70;0.40;;;14.80;77.40;;;;;;4901444;29;20092;-80
2021/05/12 06:37:02;;;;;;;1.75;0.50;;;14.70;77.00;;;;;;4901219;29;20119;-80
2021/05/12 06:39:29;;;;;;;0.77;0.40;;;14.80;76.50;;;;;;4901042;29;20083;-81
2021/05/12 06:41:54;;;;;;;0.57;0.50;;;14.60;76.60;;;;;;4900994;29;20034;-78
2021/05/12 06:44:24;;;;;;;1.77;0.40;;;14.60;76.80;;;;;;4900928;29;20547;-79
2021/05/12 06:46:53;;;;;;;0.68;0.30;;;14.50;76.80;;;;;;4900749;29;20021;-78
2021/05/12 06:49:19;;;;;;;0.50;0.50;;;14.40;77.00;;;;;;4900971;29;20419;-78
2021/05/12 06:51:45;;;;;;;0.47;0.30;;;14.30;77.40;;;;;;4917783;29;20028;-86
2021/05/12 06:54:11;;;;;;;0.47;0.47;;;14.20;77.60;;;;;;4901399;29;20048;-78
2021/05/12 06:56:38;;;;;;;0.45;0.45;;;14.10;77.60;;;;;;4917903;29;20024;-82
2021/05/12 06:59:04;;;;;;;1.08;0.50;;;14.00;77.90;;;;;;4918188;29;20031;-77
2021/05/12 11:27:02;;;;;;;2.63;1.92;;;16.90;68.00;;;;;;5027835;28;20378;-80
2021/05/12 11:32:06;;;;;;;3.00;1.98;;;17.40;65.80;;;;;;5028007;28;20028;-79
2021/05/12 11:34:32;;;;;;;1.88;1.77;;;17.20;66.30;;;;;;5027550;28;20025;-77
2021/05/12 11:37:15;;;;;;;3.03;1.90;;;17.20;66.50;;;;;;5027165;28;20068;-77
2021/05/12 11:39:42;;;;;;;2.85;2.30;;;17.00;66.70;;;;;;5027441;28;20021;-79
2021/05/12 11:42:30;;;;;;;6.05;2.60;;;17.10;66.50;;;;;;5027268;28;20014;-77
2021/05/12 11:45:22;;;;;;;2.25;2.10;;;17.10;66.30;;;;;;5027244;28;20078;-77
2021/05/12 11:47:58;;;;;;;3.05;2.80;;;17.20;67.00;;;;;;5126454;27;20733;-79
2021/05/12 11:50:30;;;;;;;2.70;2.50;;;17.40;66.80;;;;;;5095669;28;20084;-78
2021/05/12 11:52:56;;;;;;;2.13;2.00;;;17.70;65.70;;;;;;5095524;28;20025;-78
2021/05/12 11:55:28;;;;;;;2.60;2.40;;;17.80;65.20;;;;;;5026989;28;20482;-78
2021/05/12 11:57:54;;;;;;;2.50;2.30;;;18.00;64.80;;;;;;5095657;28;20029;-77
2021/05/12 12:00:23;;;;;;;3.05;2.22;;;18.10;64.80;;;;;;5096086;28;20109;-78
2021/05/12 12:03:09;;;;;;;2.08;1.98;;;18.60;64.20;;;;;;5095260;28;20025;-77
2021/05/12 12:05:40;;;;;;;2.15;1.95;;;19.80;61.10;;;;;;5026897;28;20420;-78
2021/05/12 12:08:14;;;;;;;2.50;2.30;;;20.50;56.80;;;;;;5026803;28;20490;-77
2021/05/12 12:10:41;;;;;;;2.95;2.10;;;20.80;55.60;;;;;;5026732;28;20026;-78
2021/05/12 12:13:12;;;;;;;2.17;2.00;;;20.70;56.60;;;;;;5026836;28;20471;-78
2021/05/12 12:15:43;;;;;;;2.30;2.10;;;21.40;56.90;;;;;;5095151;28;20387;-78
2021/05/12 12:18:08;;;;;;;1.95;1.85;;;22.40;54.10;;;;;;5027027;28;20024;-77
2021/05/12 12:20:34;;;;;;;2.45;2.10;;;22.90;52.00;;;;;;5027430;28;20022;-77
2021/05/12 12:23:02;;;;;;;1.85;1.75;;;23.20;52.00;;;;;;5026647;28;20437;-88
2021/05/12 12:25:52;;;;;;;3.72;1.77;;;24.00;50.70;;;;;;5094539;28;20057;-78
2021/05/12 12:28:17;;;;;;;;;;;24.60;48.60;;;;;;5082442;28;20033;-78
2021/05/12 12:30:43;;;;;;;2.53;1.90;;;24.70;47.00;;;;;;5013749;28;20270;-78
2021/05/12 12:33:09;;;;;;;1.67;1.58;;;24.70;47.00;;;;;;5013481;28;20069;-77
2021/05/12 12:35:34;;;;;;;2.35;2.00;;;24.50;46.70;;;;;;5082082;28;20033;-76
2021/05/12 12:38:12;;;;;;;1.50;1.40;;;23.90;46.20;;;;;;5081226;28;20479;-80
2021/05/12 12:40:45;;;;;;;1.48;1.42;;;23.20;47.40;;;;;;5081757;28;20041;-78
2021/05/12 12:43:10;;;;;;;2.10;2.00;;;22.50;48.20;;;;;;5013219;28;20026;-78
2021/05/12 12:45:41;;;;;;;1.83;1.73;;;21.90;49.10;;;;;;5081997;28;20040;-77
2021/05/12 12:48:08;;;;;;;1.98;1.63;;;21.40;50.30;;;;;;5013265;28;20120;-77
2021/05/12 12:50:35;;;;;;;2.08;1.88;;;21.10;51.00;;;;;;5013501;28;20072;-77
2021/05/12 12:53:06;;;;;;;2.45;1.83;;;20.90;52.70;;;;;;5013327;28;20022;-77
2021/05/12 12:55:33;;;;;;;1.70;1.60;;;21.40;53.20;;;;;;5013542;28;20030;-78
2021/05/12 12:58:10;;;;;;;2.60;1.77;;;22.20;50.70;;;;;;5013485;28;20014;-78
2021/05/12 13:00:39;;;;;;;1.65;1.55;;;23.00;49.60;;;;;;5115952;27;20036;-77
2021/05/12 13:03:12;;;;;;;1.87;1.67;;;23.30;47.90;;;;;;5013064;28;20093;-77
2021/05/12 13:05:38;;;;;;;1.55;1.45;;;23.10;47.30;;;;;;5080883;28;20432;-78
2021/05/12 13:08:30;;;;;;;1.58;1.50;;;22.60;47.70;;;;;;5012914;28;20022;-77
2021/05/12 13:11:11;;;;;;;2.67;1.85;;;22.10;48.40;;;;;;5013584;28;20105;-76
2021/05/12 13:13:45;;;;;;;1.50;1.40;;;21.40;49.40;;;;;;5080884;28;20057;-77
2021/05/12 13:16:28;;;;;;;2.17;1.40;;;20.90;50.10;;;;;;5012329;28;20037;-76
2021/05/12 13:18:57;;;;;;;2.08;1.60;;;20.60;50.60;;;;;;5012099;28;20022;-76
2021/05/12 13:21:25;;;;;;;1.50;1.45;;;20.20;51.00;;;;;;5012198;28;20030;-77
2021/05/12 13:24:26;;;;;;;1.50;1.40;;;19.90;51.70;;;;;;5011767;28;20121;-76
2021/05/12 13:27:01;;;;;;;2.33;2.13;;;19.60;52.40;;;;;;5022426;28;20042;-76
2021/05/12 13:29:27;;;;;;;14.63;2.63;;;19.40;53.00;;;;;;5079724;28;20026;-81
2021/05/12 13:31:53;;;;;;;14.05;2.97;;;19.00;54.90;;;;;;5079642;28;20018;-78
2021/05/12 13:34:21;;;;;;;3.53;2.47;;;18.70;60.70;;;;;;5012200;28;20034;-84
2021/05/12 13:36:51;;;;;;;9.13;4.15;;;18.20;67.60;;;;;;5080463;28;20018;-82
2021/05/12 13:39:18;;;;;;;2.85;2.65;;;17.80;74.80;;;;;;5011704;28;20026;-86
2021/05/12 13:41:45;;;;;;;4.10;2.63;;;17.40;77.00;;;;;;5081157;28;20034;-92
2021/05/12 13:44:13;;;;;;;3.03;2.80;;;17.10;79.90;;;;;;5012973;28;20054;-90
2021/05/12 13:46:39;;;;;;;3.22;2.97;;;16.90;81.60;;;;;;5012464;28;20018;-85
2021/05/12 13:49:05;;;;;;;3.03;2.72;;;16.70;82.80;;;;;;5080339;28;20113;-85
2021/05/12 13:51:35;;;;;;;2.78;2.58;;;16.60;83.20;;;;;;5070243;28;20461;-87
2021/05/12 14:04:00;;;;;;;2.22;2.10;;;17.00;84.10;;;;;;5114368;28;20385;-85
2021/05/12 14:08:54;;;;;;;2.40;2.20;;;17.20;81.90;;;;;;5115212;28;20032;-82
2021/05/12 14:11:22;;;;;;;2.47;2.33;;;17.30;81.50;;;;;;5059903;28;20022;-83
2021/05/12 14:13:48;;;;;;;3.22;2.45;;;17.50;80.00;;;;;;4995242;28;20091;-82
2021/05/12 14:16:22;;;;;;;2.95;2.30;;;17.60;78.20;;;;;;5070396;28;20022;-82
2021/05/12 14:18:47;;;;;;;2.60;2.35;;;17.50;78.40;;;;;;5114801;28;20011;-83
2021/05/12 14:21:15;;;;;;;2.20;2.10;;;17.40;78.50;;;;;;5114901;28;20484;-78
2021/05/12 14:23:41;;;;;;;1.40;1.30;;;17.50;78.40;;;;;;5114696;28;20020;-85
2021/05/12 14:26:07;;;;;;;1.70;1.50;;;17.70;73.80;;;;;;5114453;28;20174;-83
2021/05/12 14:28:40;;;;;;;1.40;1.30;;;17.60;72.30;;;;;;5114678;28;20095;-85
2021/05/12 14:31:08;;;;;;;1.27;1.17;;;17.40;72.20;;;;;;5114425;28;20115;-81
2021/05/12 14:33:36;;;;;;;1.33;1.23;;;17.20;72.80;;;;;;5115015;28;20030;-83
2021/05/12 14:36:03;;;;;;;1.40;1.00;;;17.00;74.10;;;;;;5114361;28;20023;-80
2021/05/12 14:38:31;;;;;;;1.25;1.10;;;16.80;74.90;;;;;;5096215;28;20430;-80
2021/05/12 14:40:57;;;;;;;0.90;0.90;;;16.80;75.50;;;;;;5114307;28;20024;-81
2021/05/12 14:43:23;;;;;;;1.67;1.50;;;16.80;76.20;;;;;;5114503;28;20030;-81
2021/05/12 14:45:48;;;;;;;2.50;1.65;;;16.90;76.30;;;;;;5114681;28;20023;-81
2021/05/12 14:48:20;;;;;;;2.45;1.33;;;16.90;75.50;;;;;;5095961;28;20035;-81
2021/05/12 14:50:49;;;;;;;1.90;1.08;;;16.90;75.70;;;;;;5114060;28;20511;-81
2021/05/12 14:53:18;;;;;;;0.90;0.90;;;16.90;75.60;;;;;;5114057;28;20027;-82
2021/05/12 15:03:33;;;;;;;1.50;1.17;;;16.90;74.70;;;;;;5022016;28;20430;-81
2021/05/12 15:08:30;;;;;;;3.67;1.48;;;16.90;74.20;;;;;;5107775;28;20022;-81
2021/05/12 15:10:56;;;;;;;1.35;1.25;;;16.90;74.50;;;;;;5095752;28;20472;-81
2021/05/12 15:13:22;;;;;;;1.35;1.10;;;16.90;74.10;;;;;;5114385;28;20449;-81
2021/05/12 15:15:48;;;;;;;1.60;1.50;;;17.00;74.00;;;;;;5113821;28;20039;-81
2021/05/12 15:18:13;;;;;;;3.80;1.52;;;17.10;73.60;;;;;;5095503;28;20019;-81
2021/05/12 15:20:39;;;;;;;1.70;1.48;;;17.10;72.80;;;;;;5113876;28;20439;-81
2021/05/12 15:23:05;;;;;;;3.08;1.48;;;17.10;72.70;;;;;;5113554;28;20055;-81
2021/05/12 15:25:31;;;;;;;1.55;1.13;;;17.00;72.10;;;;;;5113605;28;20055;-81
2021/05/12 15:27:58;;;;;;;2.15;1.20;;;17.00;71.60;;;;;;5113690;28;20388;-81
2021/05/12 15:30:24;;;;;;;1.55;1.35;;;16.90;71.20;;;;;;5095694;28;20051;-82
2021/05/12 15:32:50;;;;;;;1.65;1.50;;;16.90;71.40;;;;;;5101198;28;20060;-76
2021/05/12 15:35:16;;;;;;;1.50;1.20;;;16.70;71.30;;;;;;5111222;28;20473;-75
2021/05/12 15:37:42;;;;;;;1.58;1.48;;;16.70;71.60;;;;;;5112452;28;20051;-75
2021/05/12 15:40:09;;;;;;;2.88;1.77;;;16.60;72.50;;;;;;5113884;28;20888;-76
2021/05/12 15:42:34;;;;;;;2.67;1.52;;;16.50;74.40;;;;;;5113554;28;20016;-75
2021/05/12 15:45:00;;;;;;;2.33;1.92;;;16.40;75.60;;;;;;5112695;28;20031;-75
2021/05/12 15:47:27;;;;;;;2.20;1.70;;;16.30;76.90;;;;;;5112426;28;20024;-77
2021/05/12 15:49:53;;;;;;;4.03;2.20;;;16.10;78.40;;;;;;5094261;28;20051;-73
2021/05/12 15:52:19;;;;;;;3.45;2.40;;;16.00;80.80;;;;;;5112298;28;20469;-82
2021/05/12 15:54:45;;;;;;;4.30;3.42;;;15.90;83.00;;;;;;5094714;28;20020;-72
2021/05/12 15:57:10;;;;;;;3.70;3.40;;;15.70;84.90;;;;;;5111906;28;20020;-72
2021/05/12 15:59:36;;;;;;;3.97;3.50;;;15.60;86.00;;;;;;5112141;28;20388;-72
2021/05/12 16:02:02;;;;;;;5.32;3.47;;;15.40;86.90;;;;;;5113851;28;20094;-72
2021/05/12 16:04:28;;;;;;;3.40;3.10;;;15.30;87.80;;;;;;5115518;28;20031;-71
2021/05/12 16:06:53;;;;;;;3.25;2.97;;;15.10;88.20;;;;;;5115683;28;20019;-71
2021/05/12 16:09:20;;;;;;;3.53;3.20;;;15.00;88.30;;;;;;5115505;28;20024;-71
2021/05/12 16:11:46;;;;;;;3.50;3.00;;;14.80;88.60;;;;;;5115524;28;20107;-71
2021/05/12 16:14:12;;;;;;;3.25;2.95;;;14.70;89.30;;;;;;5115176;28;20145;-71
2021/05/12 16:16:46;;;;;;;3.28;2.75;;;14.60;89.10;;;;;;5097972;28;20023;-75
2021/05/12 16:19:12;;;;;;;2.97;2.67;;;14.70;89.20;;;;;;5098744;28;20100;-73
2021/05/12 16:21:38;;;;;;;3.75;3.05;;;14.60;89.20;;;;;;5098840;28;20066;-73
2021/05/12 16:24:04;;;;;;;4.47;3.00;;;14.70;89.50;;;;;;5117073;28;20045;-73
2021/05/12 16:26:31;;;;;;;21.73;15.35;;;14.70;89.70;;;;;;5116770;28;20051;-74
2021/05/12 16:28:56;;;;;;;11.95;8.93;;;14.70;90.00;;;;;;5098610;28;20028;-73
2021/05/12 16:31:22;;;;;;;6.30;4.82;;;14.70;90.10;;;;;;5116854;28;20069;-74
2021/05/12 16:33:48;;;;;;;3.88;3.50;;;14.60;90.20;;;;;;5116769;28;20069;-71
2021/05/12 16:36:13;;;;;;;5.28;3.35;;;14.60;90.10;;;;;;5116923;28;20028;-71
2021/05/12 16:38:39;;;;;;;3.83;3.10;;;14.70;90.00;;;;;;5116755;28;20023;-72
2021/05/12 16:41:05;;;;;;;4.43;3.53;;;14.70;90.20;;;;;;5116714;28;20093;-71
2021/05/12 16:43:31;;;;;;;4.57;3.30;;;14.80;89.90;;;;;;5116951;28;20019;-71
2021/05/12 16:45:56;;;;;;;4.25;3.70;;;14.80;89.70;;;;;;5116645;28;20024;-72
2021/05/12 16:48:23;;;;;;;6.65;3.95;;;14.80;89.70;;;;;;5116588;28;20111;-72
2021/05/12 16:50:51;;;;;;;5.82;3.88;;;14.80;89.70;;;;;;5116873;28;20024;-71
2021/05/12 16:53:17;;;;;;;5.05;3.85;;;14.70;89.70;;;;;;5116743;28;20028;-71
2021/05/12 16:55:44;;;;;;;6.60;4.15;;;14.70;89.60;;;;;;5098216;28;20384;-72
2021/05/12 16:58:09;;;;;;;5.10;4.15;;;14.60;89.80;;;;;;5098437;28;20020;-72
2021/05/12 17:00:35;;;;;;;5.78;4.28;;;14.50;90.00;;;;;;5114870;28;20453;-71
2021/05/12 17:03:02;;;;;;;4.22;3.78;;;14.40;90.20;;;;;;5114818;28;20016;-71
2021/05/12 17:05:28;;;;;;;4.65;3.90;;;14.40;90.30;;;;;;5116747;28;20023;-71
2021/05/12 17:08:03;;;;;;;4.40;4.00;;;14.40;90.30;;;;;;5116226;28;20030;-71
2021/05/12 17:10:28;;;;;;;6.85;5.78;;;14.30;90.30;;;;;;5079821;28;20479;-71
2021/05/12 17:12:54;;;;;;;11.18;7.40;;;14.30;90.40;;;;;;5012417;28;20040;-71
2021/05/12 17:15:20;;;;;;;10.95;7.53;;;14.20;90.40;;;;;;5012687;28;20028;-71
2021/05/12 17:17:45;;;;;;;9.25;7.22;;;14.10;90.50;;;;;;5010743;28;20026;-71
2021/05/12 17:20:11;;;;;;;8.27;6.80;;;14.00;90.60;;;;;;5011027;28;20018;-71
2021/05/12 17:22:37;;;;;;;8.65;6.13;;;14.00;90.60;;;;;;5078660;28;20379;-71
2021/05/12 17:25:03;;;;;;;8.20;6.72;;;14.00;90.60;;;;;;5010347;28;20050;-72
2021/05/12 17:27:31;;;;;;;10.65;7.13;;;14.00;90.70;;;;;;5010600;28;20101;-71
2021/05/12 17:29:56;;;;;;;8.65;6.95;;;13.90;90.70;;;;;;5010426;28;20026;-71
2021/05/12 17:32:22;;;;;;;8.82;6.53;;;13.90;90.80;;;;;;5010745;28;20030;-71
2021/05/12 17:34:48;;;;;;;7.95;6.65;;;13.80;91.10;;;;;;5010520;28;20068;-71
2021/05/12 17:37:13;;;;;;;8.00;7.15;;;13.80;91.20;;;;;;5010364;28;20034;-71
2021/05/12 17:39:40;;;;;;;8.73;6.30;;;13.80;91.40;;;;;;5078370;28;20033;-71